Terminal Aerodrome Forecast
Issued by NWS Melbourne, FL

Home | Current Version | Previous Version | Text Only | Print | Product List | Glossary On
Versions: 1 2 3 4 5 6 7 8 9 10 11 12 13
000
FTUS42 KMLB 041124
TAFVRB
TAF
KVRB 041124Z 0412/0512 09012G18KT P6SM VCSH SCT035 BKN045 OVC050
     FM041500 09017G24KT P6SM SCT050 SCT250
     FM050100 09013KT P6SM SCT040 SCT250=

USA.gov is the U.S. government's official web portal to all federal, state and local government web resources and services.